sensor_id;sensor_type;location;lat;lon;timestamp;temperature;humidity
7646;DHT22;3864;48.180;14.178;2023-12-20T00:00:35;-2.70;99.90
7646;DHT22;3864;48.180;14.178;2023-12-20T00:03:03;-2.70;99.90
7646;DHT22;3864;48.180;14.178;2023-12-20T00:05:30;-2.80;99.90
7646;DHT22;3864;48.180;14.178;2023-12-20T00:07:58;-2.70;99.90
7646;DHT22;3864;48.180;14.178;2023-12-20T00:10:25;-2.70;99.90
7646;DHT22;3864;48.180;14.178;2023-12-20T00:12:52;-2.60;99.90
7646;DHT22;3864;48.180;14.178;2023-12-20T00:15:20;-2.40;99.90
7646;DHT22;3864;48.180;14.178;2023-12-20T00:17:47;-2.30;99.90
7646;DHT22;3864;48.180;14.178;2023-12-20T00:20:14;-2.30;99.90
7646;DHT22;3864;48.180;14.178;2023-12-20T00:22:41;-2.20;99.90
7646;DHT22;3864;48.180;14.178;2023-12-20T00:25:08;-2.10;99.90
7646;DHT22;3864;48.180;14.178;2023-12-20T00:27:35;-2.10;99.90
7646;DHT22;3864;48.180;14.178;2023-12-20T00:30:02;-2.00;99.90
7646;DHT22;3864;48.180;14.178;2023-12-20T00:32:32;-2.00;99.90
7646;DHT22;3864;48.180;14.178;2023-12-20T00:38:49;-1.80;99.90
7646;DHT22;3864;48.180;14.178;2023-12-20T00:41:17;-1.60;99.90
7646;DHT22;3864;48.180;14.178;2023-12-20T00:43:44;-1.40;99.90
7646;DHT22;3864;48.180;14.178;2023-12-20T00:46:11;-1.20;99.90
7646;DHT22;3864;48.180;14.178;2023-12-20T00:48:39;-1.00;99.90
7646;DHT22;3864;48.180;14.178;2023-12-20T00:51:07;-0.80;99.90
7646;DHT22;3864;48.180;14.178;2023-12-20T00:53:35;-0.60;99.90
7646;DHT22;3864;48.180;14.178;2023-12-20T00:56:02;-0.50;99.90
7646;DHT22;3864;48.180;14.178;2023-12-20T00:58:28;-0.30;99.90
7646;DHT22;3864;48.180;14.178;2023-12-20T01:00:55;-0.20;99.90
7646;DHT22;3864;48.180;14.178;2023-12-20T01:03:23;-0.10;99.90
7646;DHT22;3864;48.180;14.178;2023-12-20T01:05:52;-0.10;99.90
7646;DHT22;3864;48.180;14.178;2023-12-20T01:08:19;0.00;99.90
7646;DHT22;3864;48.180;14.178;2023-12-20T01:10:46;0.00;99.90
7646;DHT22;3864;48.180;14.178;2023-12-20T01:13:13;0.00;99.90
7646;DHT22;3864;48.180;14.178;2023-12-20T01:15:40;0.00;99.90
7646;DHT22;3864;48.180;14.178;2023-12-20T01:18:07;-0.10;99.90
7646;DHT22;3864;48.180;14.178;2023-12-20T01:20:34;-0.10;99.90
7646;DHT22;3864;48.180;14.178;2023-12-20T01:23:03;-0.10;99.90
7646;DHT22;3864;48.180;14.178;2023-12-20T01:25:30;-0.10;99.90
7646;DHT22;3864;48.180;14.178;2023-12-20T01:27:57;-0.20;99.90
7646;DHT22;3864;48.180;14.178;2023-12-20T01:30:24;-0.30;99.90
7646;DHT22;3864;48.180;14.178;2023-12-20T01:32:51;-0.30;99.90
7646;DHT22;3864;48.180;14.178;2023-12-20T01:35:18;-0.40;99.90
7646;DHT22;3864;48.180;14.178;2023-12-20T01:37:45;-0.50;99.90
7646;DHT22;3864;48.180;14.178;2023-12-20T01:40:14;-0.50;99.90
7646;DHT22;3864;48.180;14.178;2023-12-20T01:42:42;-0.60;99.90
7646;DHT22;3864;48.180;14.178;2023-12-20T01:45:09;-0.70;99.90
7646;DHT22;3864;48.180;14.178;2023-12-20T01:47:36;-0.70;99.90
7646;DHT22;3864;48.180;14.178;2023-12-20T01:50:05;-0.80;99.90
7646;DHT22;3864;48.180;14.178;2023-12-20T01:52:34;-0.80;99.90
7646;DHT22;3864;48.180;14.178;2023-12-20T01:55:02;-0.80;99.90
7646;DHT22;3864;48.180;14.178;2023-12-20T01:57:33;-0.80;99.90
7646;DHT22;3864;48.180;14.178;2023-12-20T02:00:00;-0.70;99.90
7646;DHT22;3864;48.180;14.178;2023-12-20T02:02:29;-0.70;99.90
7646;DHT22;3864;48.180;14.178;2023-12-20T02:04:57;-0.70;99.90
7646;DHT22;3864;48.180;14.178;2023-12-20T02:07:24;-0.70;99.90
7646;DHT22;3864;48.180;14.178;2023-12-20T02:09:51;-0.70;99.90
7646;DHT22;3864;48.180;14.178;2023-12-20T02:12:19;-0.60;99.90
7646;DHT22;3864;48.180;14.178;2023-12-20T02:14:47;-0.50;99.90
7646;DHT22;3864;48.180;14.178;2023-12-20T02:17:15;-0.50;99.90
7646;DHT22;3864;48.180;14.178;2023-12-20T02:19:42;-0.40;99.90
7646;DHT22;3864;48.180;14.178;2023-12-20T02:22:11;-0.30;99.90
7646;DHT22;3864;48.180;14.178;2023-12-20T02:24:39;-0.30;99.90
7646;DHT22;3864;48.180;14.178;2023-12-20T02:30:12;-0.30;99.90
7646;DHT22;3864;48.180;14.178;2023-12-20T02:32:39;-0.30;99.90
7646;DHT22;3864;48.180;14.178;2023-12-20T02:35:06;-0.20;99.90
7646;DHT22;3864;48.180;14.178;2023-12-20T02:37:35;-0.20;99.90
7646;DHT22;3864;48.180;14.178;2023-12-20T02:40:02;-0.10;99.90
7646;DHT22;3864;48.180;14.178;2023-12-20T02:42:30;-0.10;99.90
7646;DHT22;3864;48.180;14.178;2023-12-20T02:44:57;-0.10;99.90
7646;DHT22;3864;48.180;14.178;2023-12-20T02:47:23;0.00;99.90
7646;DHT22;3864;48.180;14.178;2023-12-20T02:49:50;0.00;99.90
7646;DHT22;3864;48.180;14.178;2023-12-20T02:52:18;0.00;99.90
7646;DHT22;3864;48.180;14.178;2023-12-20T02:54:47;-0.10;99.90
7646;DHT22;3864;48.180;14.178;2023-12-20T02:57:14;-0.10;99.90
7646;DHT22;3864;48.180;14.178;2023-12-20T02:59:41;0.00;99.90
7646;DHT22;3864;48.180;14.178;2023-12-20T03:02:08;0.00;99.90
7646;DHT22;3864;48.180;14.178;2023-12-20T03:04:35;0.00;99.90
7646;DHT22;3864;48.180;14.178;2023-12-20T03:07:02;0.00;99.90
7646;DHT22;3864;48.180;14.178;2023-12-20T03:09:29;0.00;99.90
7646;DHT22;3864;48.180;14.178;2023-12-20T03:11:57;0.00;99.90
7646;DHT22;3864;48.180;14.178;2023-12-20T03:14:24;0.00;99.90
7646;DHT22;3864;48.180;14.178;2023-12-20T03:16:51;0.00;99.90
7646;DHT22;3864;48.180;14.178;2023-12-20T03:19:19;0.00;99.90
7646;DHT22;3864;48.180;14.178;2023-12-20T03:21:45;0.00;99.90
7646;DHT22;3864;48.180;14.178;2023-12-20T03:24:12;0.00;99.90
7646;DHT22;3864;48.180;14.178;2023-12-20T03:26:39;0.00;99.90
7646;DHT22;3864;48.180;14.178;2023-12-20T03:29:08;0.00;99.90
7646;DHT22;3864;48.180;14.178;2023-12-20T03:31:35;0.00;99.90
7646;DHT22;3864;48.180;14.178;2023-12-20T03:34:02;0.10;99.90
7646;DHT22;3864;48.180;14.178;2023-12-20T03:36:29;0.10;99.90
7646;DHT22;3864;48.180;14.178;2023-12-20T03:38:56;0.10;99.90
7646;DHT22;3864;48.180;14.178;2023-12-20T03:41:23;0.20;99.90
7646;DHT22;3864;48.180;14.178;2023-12-20T03:43:51;0.10;99.90
7646;DHT22;3864;48.180;14.178;2023-12-20T03:46:19;0.10;99.90
7646;DHT22;3864;48.180;14.178;2023-12-20T03:48:46;0.10;99.90
7646;DHT22;3864;48.180;14.178;2023-12-20T03:54:24;0.20;99.90
7646;DHT22;3864;48.180;14.178;2023-12-20T03:56:51;0.20;99.90
7646;DHT22;3864;48.180;14.178;2023-12-20T03:59:18;0.20;99.90
7646;DHT22;3864;48.180;14.178;2023-12-20T04:01:46;0.10;99.90
7646;DHT22;3864;48.180;14.178;2023-12-20T04:11:17;0.20;99.90
7646;DHT22;3864;48.180;14.178;2023-12-20T04:13:46;0.30;99.90
7646;DHT22;3864;48.180;14.178;2023-12-20T04:16:20;0.30;99.90
7646;DHT22;3864;48.180;14.178;2023-12-20T04:18:49;0.30;99.90
7646;DHT22;3864;48.180;14.178;2023-12-20T04:21:17;0.40;99.90
7646;DHT22;3864;48.180;14.178;2023-12-20T04:23:58;0.40;99.90
7646;DHT22;3864;48.180;14.178;2023-12-20T04:26:25;0.40;99.90
7646;DHT22;3864;48.180;14.178;2023-12-20T04:28:52;0.50;99.90
7646;DHT22;3864;48.180;14.178;2023-12-20T04:31:19;0.50;99.90
7646;DHT22;3864;48.180;14.178;2023-12-20T04:33:46;0.50;99.90
7646;DHT22;3864;48.180;14.178;2023-12-20T04:36:15;0.50;99.90
7646;DHT22;3864;48.180;14.178;2023-12-20T04:38:42;0.40;99.90
7646;DHT22;3864;48.180;14.178;2023-12-20T04:44:25;0.60;99.90
7646;DHT22;3864;48.180;14.178;2023-12-20T04:46:52;0.60;99.90
7646;DHT22;3864;48.180;14.178;2023-12-20T04:49:19;0.60;99.90
7646;DHT22;3864;48.180;14.178;2023-12-20T04:51:47;0.60;99.90
7646;DHT22;3864;48.180;14.178;2023-12-20T04:54:14;0.50;99.90
7646;DHT22;3864;48.180;14.178;2023-12-20T04:56:42;0.50;99.90
7646;DHT22;3864;48.180;14.178;2023-12-20T04:59:09;0.50;99.90
7646;DHT22;3864;48.180;14.178;2023-12-20T05:01:36;0.50;99.90
7646;DHT22;3864;48.180;14.178;2023-12-20T05:04:03;0.50;99.90
7646;DHT22;3864;48.180;14.178;2023-12-20T05:06:30;0.50;99.90
7646;DHT22;3864;48.180;14.178;2023-12-20T05:08:58;0.50;99.90
7646;DHT22;3864;48.180;14.178;2023-12-20T05:11:25;0.60;99.90
7646;DHT22;3864;48.180;14.178;2023-12-20T05:13:52;0.60;99.90
7646;DHT22;3864;48.180;14.178;2023-12-20T05:16:19;0.60;99.90
7646;DHT22;3864;48.180;14.178;2023-12-20T05:18:48;0.60;99.90
7646;DHT22;3864;48.180;14.178;2023-12-20T05:21:18;0.70;99.90
7646;DHT22;3864;48.180;14.178;2023-12-20T05:23:45;0.70;99.90
7646;DHT22;3864;48.180;14.178;2023-12-20T05:26:14;0.60;99.90
7646;DHT22;3864;48.180;14.178;2023-12-20T05:28:40;0.70;99.90
7646;DHT22;3864;48.180;14.178;2023-12-20T05:31:07;0.70;99.90
7646;DHT22;3864;48.180;14.178;2023-12-20T05:33:34;0.70;99.90
7646;DHT22;3864;48.180;14.178;2023-12-20T05:36:02;0.60;99.90
7646;DHT22;3864;48.180;14.178;2023-12-20T05:38:29;0.60;99.90
7646;DHT22;3864;48.180;14.178;2023-12-20T05:40:56;0.60;99.90
7646;DHT22;3864;48.180;14.178;2023-12-20T05:43:25;0.60;99.90
7646;DHT22;3864;48.180;14.178;2023-12-20T05:45:51;0.70;99.90
7646;DHT22;3864;48.180;14.178;2023-12-20T05:48:18;0.90;99.90
7646;DHT22;3864;48.180;14.178;2023-12-20T05:50:45;0.90;99.90
7646;DHT22;3864;48.180;14.178;2023-12-20T05:53:12;1.00;99.90
7646;DHT22;3864;48.180;14.178;2023-12-20T05:55:39;1.10;99.90
7646;DHT22;3864;48.180;14.178;2023-12-20T05:58:06;1.10;99.90
7646;DHT22;3864;48.180;14.178;2023-12-20T06:00:34;1.10;99.90
7646;DHT22;3864;48.180;14.178;2023-12-20T06:03:02;1.20;99.90
7646;DHT22;3864;48.180;14.178;2023-12-20T06:05:30;1.20;99.90
7646;DHT22;3864;48.180;14.178;2023-12-20T06:07:57;1.30;99.90
7646;DHT22;3864;48.180;14.178;2023-12-20T06:10:27;1.30;99.90
7646;DHT22;3864;48.180;14.178;2023-12-20T06:12:53;1.40;99.90
7646;DHT22;3864;48.180;14.178;2023-12-20T06:15:22;1.50;99.90
7646;DHT22;3864;48.180;14.178;2023-12-20T06:17:50;1.60;99.90
7646;DHT22;3864;48.180;14.178;2023-12-20T06:20:17;1.50;99.90
7646;DHT22;3864;48.180;14.178;2023-12-20T06:22:44;1.50;99.90
7646;DHT22;3864;48.180;14.178;2023-12-20T06:25:11;1.40;99.90
7646;DHT22;3864;48.180;14.178;2023-12-20T06:27:38;1.50;99.90
7646;DHT22;3864;48.180;14.178;2023-12-20T06:30:06;1.50;99.90
7646;DHT22;3864;48.180;14.178;2023-12-20T06:32:34;1.50;99.90
7646;DHT22;3864;48.180;14.178;2023-12-20T06:35:06;1.50;99.90
7646;DHT22;3864;48.180;14.178;2023-12-20T06:37:33;1.50;99.90
7646;DHT22;3864;48.180;14.178;2023-12-20T06:40:00;1.40;99.90
7646;DHT22;3864;48.180;14.178;2023-12-20T06:42:27;1.40;99.90
7646;DHT22;3864;48.180;14.178;2023-12-20T06:44:54;1.50;99.90
7646;DHT22;3864;48.180;14.178;2023-12-20T06:47:21;1.50;99.90
7646;DHT22;3864;48.180;14.178;2023-12-20T06:49:48;1.50;99.90
7646;DHT22;3864;48.180;14.178;2023-12-20T06:52:16;1.50;99.90
7646;DHT22;3864;48.180;14.178;2023-12-20T06:54:43;1.40;99.90
7646;DHT22;3864;48.180;14.178;2023-12-20T06:57:10;1.50;99.90
7646;DHT22;3864;48.180;14.178;2023-12-20T06:59:38;1.60;99.90
7646;DHT22;3864;48.180;14.178;2023-12-20T07:02:06;1.60;99.90
7646;DHT22;3864;48.180;14.178;2023-12-20T07:04:39;1.70;99.90
7646;DHT22;3864;48.180;14.178;2023-12-20T07:07:06;1.70;99.90
7646;DHT22;3864;48.180;14.178;2023-12-20T07:09:34;1.90;99.90
7646;DHT22;3864;48.180;14.178;2023-12-20T07:12:02;2.00;99.90
7646;DHT22;3864;48.180;14.178;2023-12-20T07:14:29;2.10;99.90
7646;DHT22;3864;48.180;14.178;2023-12-20T07:16:56;2.30;99.90
7646;DHT22;3864;48.180;14.178;2023-12-20T07:19:23;2.50;99.90
7646;DHT22;3864;48.180;14.178;2023-12-20T07:21:49;2.70;99.90
7646;DHT22;3864;48.180;14.178;2023-12-20T07:24:16;2.70;99.90
7646;DHT22;3864;48.180;14.178;2023-12-20T07:26:45;2.90;99.90
7646;DHT22;3864;48.180;14.178;2023-12-20T07:29:12;3.10;99.90
7646;DHT22;3864;48.180;14.178;2023-12-20T07:31:39;3.40;99.90
7646;DHT22;3864;48.180;14.178;2023-12-20T07:34:06;3.40;99.90
7646;DHT22;3864;48.180;14.178;2023-12-20T07:36:33;3.30;99.90
7646;DHT22;3864;48.180;14.178;2023-12-20T07:39:00;3.40;99.90
7646;DHT22;3864;48.180;14.178;2023-12-20T07:41:30;3.40;99.90
7646;DHT22;3864;48.180;14.178;2023-12-20T07:43:58;3.50;99.90
7646;DHT22;3864;48.180;14.178;2023-12-20T07:46:25;3.50;99.90
7646;DHT22;3864;48.180;14.178;2023-12-20T07:48:53;3.40;99.90
7646;DHT22;3864;48.180;14.178;2023-12-20T07:51:20;3.40;99.90
7646;DHT22;3864;48.180;14.178;2023-12-20T07:53:48;3.40;99.90
7646;DHT22;3864;48.180;14.178;2023-12-20T07:56:16;3.50;99.90
7646;DHT22;3864;48.180;14.178;2023-12-20T07:58:43;3.50;99.90
7646;DHT22;3864;48.180;14.178;2023-12-20T08:01:12;3.40;99.90
7646;DHT22;3864;48.180;14.178;2023-12-20T08:03:39;3.40;99.90
7646;DHT22;3864;48.180;14.178;2023-12-20T08:06:09;3.40;99.90
7646;DHT22;3864;48.180;14.178;2023-12-20T08:08:39;3.40;99.90
7646;DHT22;3864;48.180;14.178;2023-12-20T08:11:06;3.40;99.90
7646;DHT22;3864;48.180;14.178;2023-12-20T08:13:33;3.30;99.90
7646;DHT22;3864;48.180;14.178;2023-12-20T08:16:00;3.30;99.90
7646;DHT22;3864;48.180;14.178;2023-12-20T08:18:30;3.30;99.90
7646;DHT22;3864;48.180;14.178;2023-12-20T08:20:57;3.30;99.90
7646;DHT22;3864;48.180;14.178;2023-12-20T08:23:24;3.30;99.90
7646;DHT22;3864;48.180;14.178;2023-12-20T08:25:50;3.30;99.90
7646;DHT22;3864;48.180;14.178;2023-12-20T08:28:18;3.30;99.90
7646;DHT22;3864;48.180;14.178;2023-12-20T08:30:45;3.40;99.90
7646;DHT22;3864;48.180;14.178;2023-12-20T08:33:12;3.40;99.90
7646;DHT22;3864;48.180;14.178;2023-12-20T08:35:43;3.50;99.90
7646;DHT22;3864;48.180;14.178;2023-12-20T08:38:10;3.50;99.90
7646;DHT22;3864;48.180;14.178;2023-12-20T08:40:37;3.50;99.90
7646;DHT22;3864;48.180;14.178;2023-12-20T08:43:04;3.50;99.90
7646;DHT22;3864;48.180;14.178;2023-12-20T08:45:31;3.60;99.90
7646;DHT22;3864;48.180;14.178;2023-12-20T08:47:58;3.60;99.90
7646;DHT22;3864;48.180;14.178;2023-12-20T08:50:25;3.60;99.90
7646;DHT22;3864;48.180;14.178;2023-12-20T08:52:56;3.60;99.90
7646;DHT22;3864;48.180;14.178;2023-12-20T08:55:27;3.70;99.90
7646;DHT22;3864;48.180;14.178;2023-12-20T08:57:56;3.70;99.90
7646;DHT22;3864;48.180;14.178;2023-12-20T09:00:23;3.80;99.90
7646;DHT22;3864;48.180;14.178;2023-12-20T09:02:58;3.80;99.90
7646;DHT22;3864;48.180;14.178;2023-12-20T09:05:29;3.80;99.90
7646;DHT22;3864;48.180;14.178;2023-12-20T09:08:05;3.80;99.90
7646;DHT22;3864;48.180;14.178;2023-12-20T09:10:36;3.90;99.90
7646;DHT22;3864;48.180;14.178;2023-12-20T09:13:04;3.90;99.90
7646;DHT22;3864;48.180;14.178;2023-12-20T09:15:31;4.00;99.90
7646;DHT22;3864;48.180;14.178;2023-12-20T09:17:59;4.00;99.90
7646;DHT22;3864;48.180;14.178;2023-12-20T09:20:26;4.10;99.90
7646;DHT22;3864;48.180;14.178;2023-12-20T09:22:53;4.10;99.90
7646;DHT22;3864;48.180;14.178;2023-12-20T09:25:22;4.10;99.90
7646;DHT22;3864;48.180;14.178;2023-12-20T09:27:49;4.20;99.90
7646;DHT22;3864;48.180;14.178;2023-12-20T09:30:16;4.20;99.90
7646;DHT22;3864;48.180;14.178;2023-12-20T09:32:43;4.20;99.90
7646;DHT22;3864;48.180;14.178;2023-12-20T09:35:11;4.20;99.90
7646;DHT22;3864;48.180;14.178;2023-12-20T09:37:41;4.20;99.90
7646;DHT22;3864;48.180;14.178;2023-12-20T09:40:12;4.30;99.90
7646;DHT22;3864;48.180;14.178;2023-12-20T09:42:50;4.30;99.90
7646;DHT22;3864;48.180;14.178;2023-12-20T09:45:22;4.40;99.90
7646;DHT22;3864;48.180;14.178;2023-12-20T09:47:49;4.40;99.90
7646;DHT22;3864;48.180;14.178;2023-12-20T09:50:18;4.40;99.90
7646;DHT22;3864;48.180;14.178;2023-12-20T09:52:50;4.40;99.90
7646;DHT22;3864;48.180;14.178;2023-12-20T09:55:17;4.40;99.90
7646;DHT22;3864;48.180;14.178;2023-12-20T09:57:46;4.40;99.90
7646;DHT22;3864;48.180;14.178;2023-12-20T10:00:14;4.50;99.90
7646;DHT22;3864;48.180;14.178;2023-12-20T10:02:46;4.50;99.90
7646;DHT22;3864;48.180;14.178;2023-12-20T10:05:17;4.60;99.90
7646;DHT22;3864;48.180;14.178;2023-12-20T10:07:46;4.60;99.90
7646;DHT22;3864;48.180;14.178;2023-12-20T10:10:13;4.70;99.90
7646;DHT22;3864;48.180;14.178;2023-12-20T10:12:42;4.80;99.90
7646;DHT22;3864;48.180;14.178;2023-12-20T10:15:29;4.90;99.90
7646;DHT22;3864;48.180;14.178;2023-12-20T10:17:56;5.00;99.90
7646;DHT22;3864;48.180;14.178;2023-12-20T10:20:24;5.10;99.90
7646;DHT22;3864;48.180;14.178;2023-12-20T10:22:51;5.10;99.90
7646;DHT22;3864;48.180;14.178;2023-12-20T10:25:20;5.10;99.90
7646;DHT22;3864;48.180;14.178;2023-12-20T10:27:49;5.10;99.90
7646;DHT22;3864;48.180;14.178;2023-12-20T10:30:16;5.10;99.90
7646;DHT22;3864;48.180;14.178;2023-12-20T10:32:44;5.10;99.90
7646;DHT22;3864;48.180;14.178;2023-12-20T10:35:11;5.10;99.90
7646;DHT22;3864;48.180;14.178;2023-12-20T10:37:39;5.20;99.90
7646;DHT22;3864;48.180;14.178;2023-12-20T10:40:07;5.20;99.90
7646;DHT22;3864;48.180;14.178;2023-12-20T10:42:35;5.20;99.90
7646;DHT22;3864;48.180;14.178;2023-12-20T10:45:04;5.20;99.90
7646;DHT22;3864;48.180;14.178;2023-12-20T10:47:31;5.20;99.90
7646;DHT22;3864;48.180;14.178;2023-12-20T10:49:59;5.20;99.90
7646;DHT22;3864;48.180;14.178;2023-12-20T10:52:28;5.20;99.90
7646;DHT22;3864;48.180;14.178;2023-12-20T10:54:56;5.20;99.90
7646;DHT22;3864;48.180;14.178;2023-12-20T10:57:26;5.20;99.90
7646;DHT22;3864;48.180;14.178;2023-12-20T10:59:54;5.20;99.90
7646;DHT22;3864;48.180;14.178;2023-12-20T11:02:22;5.20;99.90
7646;DHT22;3864;48.180;14.178;2023-12-20T11:04:53;5.20;99.90
7646;DHT22;3864;48.180;14.178;2023-12-20T11:07:29;5.20;99.90
7646;DHT22;3864;48.180;14.178;2023-12-20T11:10:01;5.30;99.90
7646;DHT22;3864;48.180;14.178;2023-12-20T11:12:37;5.30;99.90
7646;DHT22;3864;48.180;14.178;2023-12-20T11:15:05;5.40;99.90
7646;DHT22;3864;48.180;14.178;2023-12-20T11:17:39;5.50;99.90
7646;DHT22;3864;48.180;14.178;2023-12-20T11:20:10;5.60;99.90
7646;DHT22;3864;48.180;14.178;2023-12-20T11:22:52;5.60;99.90
7646;DHT22;3864;48.180;14.178;2023-12-20T11:25:19;5.60;99.90
7646;DHT22;3864;48.180;14.178;2023-12-20T11:28:07;5.60;99.90
7646;DHT22;3864;48.180;14.178;2023-12-20T11:30:50;5.60;99.90
7646;DHT22;3864;48.180;14.178;2023-12-20T11:33:21;5.60;99.90
7646;DHT22;3864;48.180;14.178;2023-12-20T11:35:48;5.60;99.90
7646;DHT22;3864;48.180;14.178;2023-12-20T11:38:19;5.60;99.90
7646;DHT22;3864;48.180;14.178;2023-12-20T11:40:48;5.70;99.90
7646;DHT22;3864;48.180;14.178;2023-12-20T11:43:29;5.70;99.90
7646;DHT22;3864;48.180;14.178;2023-12-20T11:46:02;5.70;99.90
7646;DHT22;3864;48.180;14.178;2023-12-20T11:48:30;5.70;99.90
7646;DHT22;3864;48.180;14.178;2023-12-20T11:50:58;5.70;99.90
7646;DHT22;3864;48.180;14.178;2023-12-20T11:53:26;5.70;99.90
7646;DHT22;3864;48.180;14.178;2023-12-20T11:55:54;5.60;99.90
7646;DHT22;3864;48.180;14.178;2023-12-20T11:58:21;5.50;99.90
7646;DHT22;3864;48.180;14.178;2023-12-20T12:00:49;5.50;99.90
7646;DHT22;3864;48.180;14.178;2023-12-20T12:03:16;5.50;99.90
7646;DHT22;3864;48.180;14.178;2023-12-20T12:05:43;5.40;99.90
7646;DHT22;3864;48.180;14.178;2023-12-20T12:08:12;5.40;99.90
7646;DHT22;3864;48.180;14.178;2023-12-20T12:10:41;5.40;99.90
7646;DHT22;3864;48.180;14.178;2023-12-20T12:13:08;5.50;99.90
7646;DHT22;3864;48.180;14.178;2023-12-20T12:15:35;5.50;99.90
7646;DHT22;3864;48.180;14.178;2023-12-20T12:18:03;5.50;99.90
7646;DHT22;3864;48.180;14.178;2023-12-20T12:20:31;5.50;99.90
7646;DHT22;3864;48.180;14.178;2023-12-20T12:22:58;5.50;99.90
7646;DHT22;3864;48.180;14.178;2023-12-20T12:25:26;5.50;99.90
7646;DHT22;3864;48.180;14.178;2023-12-20T12:27:56;5.40;99.90
7646;DHT22;3864;48.180;14.178;2023-12-20T12:30:23;5.40;99.90
7646;DHT22;3864;48.180;14.178;2023-12-20T12:32:50;5.40;99.90
7646;DHT22;3864;48.180;14.178;2023-12-20T12:35:19;5.40;99.90
7646;DHT22;3864;48.180;14.178;2023-12-20T12:37:46;5.40;99.90
7646;DHT22;3864;48.180;14.178;2023-12-20T12:40:13;5.40;99.90
7646;DHT22;3864;48.180;14.178;2023-12-20T12:42:41;5.40;99.90
7646;DHT22;3864;48.180;14.178;2023-12-20T12:45:11;5.40;99.90
7646;DHT22;3864;48.180;14.178;2023-12-20T12:47:38;5.40;99.90
7646;DHT22;3864;48.180;14.178;2023-12-20T12:50:07;5.40;99.90
7646;DHT22;3864;48.180;14.178;2023-12-20T12:52:35;5.40;99.90
7646;DHT22;3864;48.180;14.178;2023-12-20T12:55:03;5.40;99.90
7646;DHT22;3864;48.180;14.178;2023-12-20T12:57:31;5.40;99.90
7646;DHT22;3864;48.180;14.178;2023-12-20T12:59:58;5.40;99.90
7646;DHT22;3864;48.180;14.178;2023-12-20T13:02:26;5.40;99.90
7646;DHT22;3864;48.180;14.178;2023-12-20T13:04:53;5.40;99.90
7646;DHT22;3864;48.180;14.178;2023-12-20T13:07:20;5.50;99.90
7646;DHT22;3864;48.180;14.178;2023-12-20T13:09:47;5.50;99.90
7646;DHT22;3864;48.180;14.178;2023-12-20T13:12:14;5.50;99.90
7646;DHT22;3864;48.180;14.178;2023-12-20T13:14:41;5.60;99.90
7646;DHT22;3864;48.180;14.178;2023-12-20T13:17:08;5.70;99.90
7646;DHT22;3864;48.180;14.178;2023-12-20T13:19:36;5.80;99.90
7646;DHT22;3864;48.180;14.178;2023-12-20T13:22:03;5.80;99.90
7646;DHT22;3864;48.180;14.178;2023-12-20T13:24:30;5.80;99.90
7646;DHT22;3864;48.180;14.178;2023-12-20T13:26:57;5.90;99.90
7646;DHT22;3864;48.180;14.178;2023-12-20T13:29:24;6.00;99.90
7646;DHT22;3864;48.180;14.178;2023-12-20T13:31:52;6.00;99.90
7646;DHT22;3864;48.180;14.178;2023-12-20T13:34:19;6.00;99.90
7646;DHT22;3864;48.180;14.178;2023-12-20T13:36:48;6.00;99.90
7646;DHT22;3864;48.180;14.178;2023-12-20T13:39:16;6.10;99.90
7646;DHT22;3864;48.180;14.178;2023-12-20T13:41:43;6.10;99.90
7646;DHT22;3864;48.180;14.178;2023-12-20T13:44:10;6.10;99.90
7646;DHT22;3864;48.180;14.178;2023-12-20T13:46:42;6.10;99.90
7646;DHT22;3864;48.180;14.178;2023-12-20T13:49:11;6.00;99.90
7646;DHT22;3864;48.180;14.178;2023-12-20T13:51:39;6.10;99.90
7646;DHT22;3864;48.180;14.178;2023-12-20T13:54:10;6.10;99.90
7646;DHT22;3864;48.180;14.178;2023-12-20T13:56:38;6.30;99.90
7646;DHT22;3864;48.180;14.178;2023-12-20T13:59:05;6.40;99.90
7646;DHT22;3864;48.180;14.178;2023-12-20T14:01:32;6.40;99.90
7646;DHT22;3864;48.180;14.178;2023-12-20T14:03:59;6.50;99.90
7646;DHT22;3864;48.180;14.178;2023-12-20T14:06:26;6.50;99.90
7646;DHT22;3864;48.180;14.178;2023-12-20T14:08:55;6.50;99.90
7646;DHT22;3864;48.180;14.178;2023-12-20T14:11:24;6.50;99.90
7646;DHT22;3864;48.180;14.178;2023-12-20T14:13:50;6.50;99.90
7646;DHT22;3864;48.180;14.178;2023-12-20T14:16:16;6.50;99.90
7646;DHT22;3864;48.180;14.178;2023-12-20T14:18:43;6.50;99.90
7646;DHT22;3864;48.180;14.178;2023-12-20T14:21:10;6.40;99.90
7646;DHT22;3864;48.180;14.178;2023-12-20T14:23:37;6.40;99.90
7646;DHT22;3864;48.180;14.178;2023-12-20T14:26:04;6.40;99.90
7646;DHT22;3864;48.180;14.178;2023-12-20T14:28:32;6.30;99.90
7646;DHT22;3864;48.180;14.178;2023-12-20T14:30:59;6.30;99.90
7646;DHT22;3864;48.180;14.178;2023-12-20T14:33:26;6.30;99.90
7646;DHT22;3864;48.180;14.178;2023-12-20T14:35:53;6.30;99.90
7646;DHT22;3864;48.180;14.178;2023-12-20T14:38:20;6.30;99.90
7646;DHT22;3864;48.180;14.178;2023-12-20T14:40:47;6.20;99.90
7646;DHT22;3864;48.180;14.178;2023-12-20T14:43:14;6.20;99.90
7646;DHT22;3864;48.180;14.178;2023-12-20T14:45:43;6.20;99.90
7646;DHT22;3864;48.180;14.178;2023-12-20T14:48:10;6.20;99.90
7646;DHT22;3864;48.180;14.178;2023-12-20T14:50:38;6.10;99.90
7646;DHT22;3864;48.180;14.178;2023-12-20T14:53:06;6.10;99.90
7646;DHT22;3864;48.180;14.178;2023-12-20T14:55:34;6.00;99.90
7646;DHT22;3864;48.180;14.178;2023-12-20T14:58:01;6.00;99.90
7646;DHT22;3864;48.180;14.178;2023-12-20T15:00:28;5.90;99.90
7646;DHT22;3864;48.180;14.178;2023-12-20T15:02:56;5.80;99.90
7646;DHT22;3864;48.180;14.178;2023-12-20T15:05:23;5.80;99.90
7646;DHT22;3864;48.180;14.178;2023-12-20T15:07:52;5.70;99.90
7646;DHT22;3864;48.180;14.178;2023-12-20T15:10:18;5.70;99.90
7646;DHT22;3864;48.180;14.178;2023-12-20T15:12:46;5.70;99.90
7646;DHT22;3864;48.180;14.178;2023-12-20T15:15:13;5.70;99.90
7646;DHT22;3864;48.180;14.178;2023-12-20T15:17:40;5.60;99.90
7646;DHT22;3864;48.180;14.178;2023-12-20T15:20:10;5.50;99.90
7646;DHT22;3864;48.180;14.178;2023-12-20T15:22:37;5.50;99.90
7646;DHT22;3864;48.180;14.178;2023-12-20T15:25:07;5.40;99.90
7646;DHT22;3864;48.180;14.178;2023-12-20T15:27:34;5.30;99.90
7646;DHT22;3864;48.180;14.178;2023-12-20T15:30:07;5.20;99.90
7646;DHT22;3864;48.180;14.178;2023-12-20T15:32:35;5.10;99.90
7646;DHT22;3864;48.180;14.178;2023-12-20T15:35:03;5.10;99.90
7646;DHT22;3864;48.180;14.178;2023-12-20T15:37:34;5.00;99.90
7646;DHT22;3864;48.180;14.178;2023-12-20T15:40:03;5.00;99.90
7646;DHT22;3864;48.180;14.178;2023-12-20T15:42:31;5.10;99.90
7646;DHT22;3864;48.180;14.178;2023-12-20T15:45:01;5.10;99.90
7646;DHT22;3864;48.180;14.178;2023-12-20T15:47:28;5.20;99.90
7646;DHT22;3864;48.180;14.178;2023-12-20T15:49:58;5.20;99.90
7646;DHT22;3864;48.180;14.178;2023-12-20T15:52:25;5.20;99.90
7646;DHT22;3864;48.180;14.178;2023-12-20T15:54:54;5.20;99.90
7646;DHT22;3864;48.180;14.178;2023-12-20T15:57:21;5.20;99.90
7646;DHT22;3864;48.180;14.178;2023-12-20T15:59:48;5.20;99.90
7646;DHT22;3864;48.180;14.178;2023-12-20T16:02:16;5.10;99.90
7646;DHT22;3864;48.180;14.178;2023-12-20T16:04:43;5.10;99.90
7646;DHT22;3864;48.180;14.178;2023-12-20T16:07:10;5.10;99.90
7646;DHT22;3864;48.180;14.178;2023-12-20T16:09:37;5.10;99.90
7646;DHT22;3864;48.180;14.178;2023-12-20T16:12:09;5.10;99.90
7646;DHT22;3864;48.180;14.178;2023-12-20T16:14:37;4.90;99.90
7646;DHT22;3864;48.180;14.178;2023-12-20T16:17:04;4.80;99.90
7646;DHT22;3864;48.180;14.178;2023-12-20T16:19:36;4.60;99.90
7646;DHT22;3864;48.180;14.178;2023-12-20T16:22:03;4.50;99.90
7646;DHT22;3864;48.180;14.178;2023-12-20T16:24:31;4.40;99.90